Time;durP1;ratioP1;P1;durP2;ratioP2;P2;SDS_P1;SDS_P2;PMS_P1;PMS_P2;Temp;Humidity;BMP_temperature;BMP_pressure;BME280_temperature;BME280_humidity;BME280_pressure;Samples;Min_cycle;Max_cycle;Signal;HPM_P1;HPM_P2
2022/03/13 00:01:50;;;;;;;29.98;12.55;;;;;;;-1.23;37.99;101215.62;2073138;84;21668;-81
2022/03/13 00:04:54;;;;;;;30.10;12.95;;;;;;;-1.18;37.92;101212.37;2064890;84;22120;-81
2022/03/13 00:07:56;;;;;;;29.23;12.98;;;;;;;-1.14;37.93;101218.28;2073525;84;21038;-83
2022/03/13 00:11:16;;;;;;;28.60;13.15;;;;;;;-1.12;37.90;101213.86;2080695;84;21565;-81
2022/03/13 00:14:13;;;;;;;27.27;12.47;;;;;;;-1.08;37.82;101211.97;2053365;84;21118;-81
2022/03/13 00:17:16;;;;;;;32.05;13.25;;;;;;;-1.09;37.88;101221.55;2082571;84;21043;-82
2022/03/13 00:20:17;;;;;;;31.62;13.20;;;;;;;-1.08;37.86;101213.27;2076247;84;21047;-80
2022/03/13 00:23:20;;;;;;;30.37;14.13;;;;;;;-1.03;37.91;101212.63;2067397;84;21035;-82
2022/03/13 00:26:22;;;;;;;34.27;14.38;;;;;;;-1.02;37.94;101209.09;2071424;84;21007;-82
2022/03/13 00:29:23;;;;;;;31.12;13.55;;;;;;;-1.01;37.91;101208.20;2074843;84;21097;-82
2022/03/13 00:32:25;;;;;;;32.23;14.05;;;;;;;-1.04;37.96;101203.97;2070678;84;21050;-83
2022/03/13 00:35:28;;;;;;;28.50;13.68;;;;;;;-1.06;37.99;101203.64;2079445;84;21037;-81
2022/03/13 00:38:30;;;;;;;27.73;12.73;;;;;;;-1.05;38.13;101210.06;2080798;84;21075;-84
2022/03/13 00:41:32;;;;;;;31.10;14.13;;;;;;;-1.05;38.12;101196.20;2076682;84;20968;-82
2022/03/13 00:44:34;;;;;;;26.87;12.03;;;;;;;-1.05;38.23;101194.44;2071272;84;21055;-82
2022/03/13 00:47:35;;;;;;;28.95;13.20;;;;;;;-1.07;38.25;101196.28;2073281;84;21053;-81
2022/03/13 00:50:37;;;;;;;32.40;13.65;;;;;;;-1.06;38.22;101203.18;2075709;84;21617;-78
2022/03/13 00:53:41;;;;;;;32.03;14.30;;;;;;;-1.06;38.20;101203.64;2080394;84;21065;-83
2022/03/13 00:56:42;;;;;;;39.40;16.05;;;;;;;-1.10;38.24;101198.99;2069649;84;21074;-82
2022/03/13 00:59:46;;;;;;;31.45;14.75;;;;;;;-1.17;38.38;101208.84;2072355;84;21067;-82
2022/03/13 01:02:47;;;;;;;38.05;14.95;;;;;;;-1.22;38.48;101213.84;2076830;84;21022;-78
2022/03/13 01:05:55;;;;;;;33.20;15.58;;;;;;;-1.28;38.61;101211.51;2074734;84;21018;-82
2022/03/13 01:08:59;;;;;;;34.73;17.05;;;;;;;-1.36;38.77;101215.72;2078542;84;21015;-82
2022/03/13 01:12:01;;;;;;;38.58;16.65;;;;;;;-1.50;39.05;101213.69;2072369;84;21042;-81
2022/03/13 01:15:05;;;;;;;34.88;14.83;;;;;;;-1.68;39.27;101217.05;2071609;84;21046;-79
2022/03/13 01:18:06;;;;;;;30.37;14.87;;;;;;;-1.90;39.63;101211.85;2071247;84;21891;-79
2022/03/13 01:21:07;;;;;;;36.25;15.32;;;;;;;-2.10;40.07;101203.53;2069408;84;21455;-81
2022/03/13 01:24:17;;;;;;;32.93;13.78;;;;;;;-2.14;40.70;101199.33;2059265;84;21007;-81
2022/03/13 01:27:19;;;;;;;32.40;14.93;;;;;;;-2.12;40.47;101193.63;2063330;84;21572;-83
2022/03/13 01:30:21;;;;;;;39.05;17.00;;;;;;;-2.09;40.43;101187.00;2069736;84;21085;-81
2022/03/13 01:33:22;;;;;;;36.17;16.30;;;;;;;-2.10;40.36;101184.02;2075983;84;21065;-80
2022/03/13 01:36:24;;;;;;;36.70;15.18;;;;;;;-2.08;40.36;101182.22;2066798;84;21537;-82
2022/03/13 01:39:25;;;;;;;36.42;16.05;;;;;;;-2.07;40.41;101176.09;2060180;84;21031;-82
2022/03/13 01:42:27;;;;;;;36.28;14.87;;;;;;;-2.04;40.50;101173.38;2070200;84;21061;-82
2022/03/13 01:45:29;;;;;;;35.45;15.08;;;;;;;-1.99;40.43;101175.34;2042994;84;21482;-80
2022/03/13 01:48:42;;;;;;;36.98;15.72;;;;;;;-1.94;40.29;101176.02;2072479;84;21097;-80
2022/03/13 01:51:43;;;;;;;38.65;17.12;;;;;;;-1.89;40.25;101168.01;2054306;84;21053;-81
2022/03/13 01:54:47;;;;;;;39.42;15.85;;;;;;;-1.87;40.20;101170.94;2061470;84;21031;-81
2022/03/13 01:57:49;;;;;;;34.98;16.30;;;;;;;-1.86;40.26;101174.39;2066287;84;20987;-81
2022/03/13 02:00:50;;;;;;;34.05;13.93;;;;;;;-1.91;40.36;101175.89;2065147;84;21081;-80
2022/03/13 02:03:52;;;;;;;32.58;14.50;;;;;;;-1.97;40.50;101178.73;2059925;84;21069;-82
2022/03/13 02:06:58;;;;;;;36.77;15.23;;;;;;;-2.06;40.86;101180.38;2068321;84;21010;-83
2022/03/13 02:09:59;;;;;;;31.87;14.95;;;;;;;-2.19;41.01;101176.59;2069061;83;21033;-79
2022/03/13 02:13:01;;;;;;;31.85;15.65;;;;;;;-2.29;41.34;101175.62;2068508;84;21514;-81
2022/03/13 02:16:05;;;;;;;31.85;15.60;;;;;;;-2.37;41.55;101168.56;2064729;83;21042;-82
2022/03/13 02:19:06;;;;;;;33.95;15.43;;;;;;;-2.47;41.86;101171.14;2102945;83;21001;-83
2022/03/13 02:22:08;;;;;;;31.00;14.47;;;;;;;-2.48;42.14;101173.31;2091497;83;21041;-82
2022/03/13 02:25:15;;;;;;;34.30;14.85;;;;;;;-2.49;42.33;101171.17;2089123;83;21006;-81
2022/03/13 02:28:24;;;;;;;34.18;14.83;;;;;;;-2.49;42.24;101175.53;2076088;83;21074;-80
2022/03/13 02:31:34;;;;;;;33.45;16.15;;;;;;;-2.51;42.30;101164.34;2093808;83;21026;-82
2022/03/13 02:34:35;;;;;;;34.35;15.68;;;;;;;-2.51;42.27;101170.84;2092173;83;21061;-81
2022/03/13 02:37:40;;;;;;;37.83;15.05;;;;;;;-2.50;42.29;101159.56;2087118;83;20995;-81
2022/03/13 02:40:42;;;;;;;37.45;15.78;;;;;;;-2.48;42.29;101153.83;2091971;83;21624;-78
2022/03/13 02:43:43;;;;;;;40.67;14.75;;;;;;;-2.43;42.30;101153.66;2097741;83;21062;-81
2022/03/13 02:47:04;;;;;;;34.23;15.78;;;;;;;-2.37;42.22;101148.22;2092952;83;21003;-82
2022/03/13 02:50:06;;;;;;;37.50;15.40;;;;;;;-2.31;42.25;101139.75;2094349;83;21014;-81
2022/03/13 02:53:09;;;;;;;36.70;14.63;;;;;;;-2.23;42.45;101145.93;2089963;83;21487;-78
2022/03/13 02:56:11;;;;;;;34.85;14.25;;;;;;;-2.18;42.47;101149.66;2093192;83;21035;-82
2022/03/13 02:59:14;;;;;;;35.98;15.43;;;;;;;-2.26;42.70;101153.86;2098813;83;21695;-82
2022/03/13 03:02:17;;;;;;;30.08;14.07;;;;;;;-2.35;42.60;101146.42;2090734;83;21064;-82
2022/03/13 03:05:18;;;;;;;35.90;14.40;;;;;;;-2.35;42.55;101144.66;2099280;83;21069;-80
2022/03/13 03:08:22;;;;;;;31.12;14.07;;;;;;;-2.33;42.59;101145.45;2090763;83;21045;-82
2022/03/13 03:11:23;;;;;;;33.33;13.78;;;;;;;-2.33;42.56;101145.45;2087297;83;21077;-81
2022/03/13 03:14:25;;;;;;;30.80;13.88;;;;;;;-2.33;42.62;101145.92;2084446;83;20995;-81
2022/03/13 03:17:26;;;;;;;31.65;13.75;;;;;;;-2.32;42.55;101147.14;2082831;83;20999;-81
2022/03/13 03:20:28;;;;;;;32.00;14.68;;;;;;;-2.31;42.60;101141.05;2069969;84;21034;-80
2022/03/13 03:23:31;;;;;;;33.70;14.98;;;;;;;-2.38;42.71;101141.34;2069932;84;21074;-82
2022/03/13 03:26:33;;;;;;;32.20;14.30;;;;;;;-2.44;42.77;101140.28;2069148;84;21498;-81
2022/03/13 03:29:35;;;;;;;32.88;14.35;;;;;;;-2.51;42.95;101135.30;2072946;84;20999;-82
2022/03/13 03:32:36;;;;;;;30.80;13.50;;;;;;;-2.58;43.06;101135.61;2078622;84;21481;-82
2022/03/13 03:35:38;;;;;;;32.05;14.35;;;;;;;-2.63;43.25;101142.72;2074146;84;21760;-81
2022/03/13 03:38:40;;;;;;;30.30;13.38;;;;;;;-2.65;43.42;101138.03;2076064;84;21010;-81
2022/03/13 03:41:43;;;;;;;34.40;15.08;;;;;;;-2.75;43.71;101140.98;2079062;84;20992;-80
2022/03/13 03:44:44;;;;;;;32.90;13.93;;;;;;;-2.80;43.76;101139.00;2068909;84;21708;-82
2022/03/13 03:47:46;;;;;;;30.35;14.30;;;;;;;-2.84;43.95;101149.12;2070884;84;21036;-80
2022/03/13 03:50:48;;;;;;;34.10;14.38;;;;;;;-2.92;44.19;101147.25;2074368;84;21086;-83
2022/03/13 03:53:49;;;;;;;32.63;14.33;;;;;;;-2.92;44.17;101152.90;2076140;84;21034;-81
2022/03/13 03:56:51;;;;;;;34.33;14.60;;;;;;;-2.98;44.27;101147.48;2075529;83;21097;-82
2022/03/13 03:59:52;;;;;;;33.35;13.85;;;;;;;-3.10;44.47;101146.59;2081984;84;21002;-81
2022/03/13 04:02:54;;;;;;;38.88;15.20;;;;;;;-3.25;44.67;101144.09;2079162;84;21027;-80
2022/03/13 04:05:55;;;;;;;38.13;13.32;;;;;;;-3.29;44.78;101155.05;2071705;84;21029;-82
2022/03/13 04:08:57;;;;;;;35.30;15.90;;;;;;;-3.24;44.84;101158.34;2068916;84;21035;-79
2022/03/13 04:11:58;;;;;;;38.13;15.15;;;;;;;-3.31;45.11;101152.10;2079908;84;21058;-81
2022/03/13 04:15:01;;;;;;;33.35;13.72;;;;;;;-3.34;45.16;101154.34;2073386;84;21017;-79
2022/03/13 04:18:03;;;;;;;39.88;14.35;;;;;;;-3.30;45.20;101162.87;2084042;83;21045;-82
2022/03/13 04:21:06;;;;;;;35.43;14.98;;;;;;;-3.28;45.24;101158.02;2091548;83;21034;-81
2022/03/13 04:24:11;;;;;;;32.03;13.35;;;;;;;-3.20;45.31;101154.72;2097061;83;21500;-79
2022/03/13 04:27:13;;;;;;;30.88;13.22;;;;;;;-3.16;45.34;101156.29;2086378;83;21633;-81
2022/03/13 04:30:15;;;;;;;35.52;15.40;;;;;;;-3.09;45.30;101150.91;2069690;83;21045;-79
2022/03/13 04:33:16;;;;;;;42.00;16.73;;;;;;;-3.09;45.34;101159.99;2089676;83;21510;-80
2022/03/13 04:36:21;;;;;;;39.33;17.00;;;;;;;-3.09;45.50;101158.70;2091277;83;21049;-82
2022/03/13 04:39:23;;;;;;;35.70;14.50;;;;;;;-3.09;45.57;101163.89;2098900;83;21559;-80
2022/03/13 04:42:24;;;;;;;32.45;15.10;;;;;;;-3.07;45.44;101153.84;2096542;83;21042;-81
2022/03/13 04:45:26;;;;;;;31.80;13.70;;;;;;;-3.02;45.33;101161.45;2091120;83;21045;-82
2022/03/13 04:48:28;;;;;;;43.25;15.93;;;;;;;-3.00;45.26;101156.60;2092533;83;20974;-79
2022/03/13 04:51:29;;;;;;;47.55;18.30;;;;;;;-2.98;45.32;101159.16;2098080;83;21436;-82
2022/03/13 04:54:31;;;;;;;44.35;18.20;;;;;;;-3.01;45.41;101152.78;2099698;83;20939;-79
2022/03/13 04:57:32;;;;;;;41.85;15.72;;;;;;;-3.06;45.50;101158.58;2093080;83;21017;-82
2022/03/13 05:00:38;;;;;;;33.40;14.55;;;;;;;-3.06;45.49;101168.97;2091688;83;21057;-81
2022/03/13 05:03:37;;;;;;;34.60;14.50;;;;;;;-3.11;45.62;101166.98;2102291;83;21057;-79
2022/03/13 05:06:45;;;;;;;33.70;14.87;;;;;;;-3.16;45.80;101173.62;2087259;83;21042;-80
2022/03/13 05:09:42;;;;;;;32.90;15.35;;;;;;;-3.18;45.89;101169.80;2089326;83;21058;-79
2022/03/13 05:12:44;;;;;;;33.15;15.25;;;;;;;-3.19;46.11;101169.37;2090053;83;21328;-81
2022/03/13 05:15:47;;;;;;;33.88;14.28;;;;;;;-3.19;46.21;101165.48;2093834;83;21085;-80
2022/03/13 05:18:48;;;;;;;32.25;15.53;;;;;;;-3.14;46.27;101168.39;2092372;83;21042;-81
2022/03/13 05:21:50;;;;;;;36.45;15.10;;;;;;;-3.09;46.21;101171.22;2094989;83;21489;-81
2022/03/13 05:24:52;;;;;;;35.03;15.65;;;;;;;-3.03;46.17;101170.16;2096260;83;21037;-81
2022/03/13 05:27:53;;;;;;;40.95;18.05;;;;;;;-2.93;46.21;101176.70;2088243;83;20981;-80
2022/03/13 05:30:54;;;;;;;50.20;19.52;;;;;;;-2.83;46.26;101178.08;2091628;83;21040;-80
2022/03/13 05:33:56;;;;;;;42.55;16.02;;;;;;;-2.66;46.31;101180.06;2091538;83;21034;-82
2022/03/13 05:36:57;;;;;;;36.33;15.83;;;;;;;-2.39;46.34;101174.30;2096943;83;21021;-82
2022/03/13 05:40:00;;;;;;;82.10;29.05;;;;;;;-2.08;46.20;101183.52;2097213;83;21029;-82
2022/03/13 05:43:02;;;;;;;66.45;25.60;;;;;;;-1.78;45.97;101177.98;2087707;83;21081;-82
2022/03/13 05:46:04;;;;;;;51.37;20.40;;;;;;;-1.40;45.77;101178.56;2092168;83;21059;-81
2022/03/13 05:49:05;;;;;;;42.90;19.15;;;;;;;-0.95;45.59;101180.11;2085120;83;21000;-79
2022/03/13 05:52:08;;;;;;;37.58;16.82;;;;;;;-0.38;45.36;101181.47;2094125;83;21158;-81
2022/03/13 05:55:09;;;;;;;50.03;18.87;;;;;;;0.05;44.68;101186.43;2093517;83;21589;-81
2022/03/13 05:58:14;;;;;;;57.23;20.25;;;;;;;0.28;44.43;101186.16;2090663;83;21520;-80
2022/03/13 06:01:14;;;;;;;52.88;21.25;;;;;;;0.53;44.20;101186.27;2090009;83;21054;-79
2022/03/13 06:04:15;;;;;;;48.17;19.15;;;;;;;0.72;43.74;101184.42;2094300;83;21623;-80
2022/03/13 06:07:17;;;;;;;40.83;17.45;;;;;;;0.78;43.19;101180.19;2093640;83;21034;-79
2022/03/13 06:10:19;;;;;;;32.48;15.35;;;;;;;0.80;43.04;101186.19;2093859;83;21010;-81
2022/03/13 06:13:22;;;;;;;35.90;15.72;;;;;;;0.96;42.89;101188.00;2098609;83;21021;-80
2022/03/13 06:16:24;;;;;;;29.05;15.15;;;;;;;1.14;43.00;101188.84;2101709;83;21080;-80
2022/03/13 06:19:25;;;;;;;32.08;14.87;;;;;;;1.42;42.87;101192.16;2066763;83;21098;-82
2022/03/13 06:22:27;;;;;;;32.30;14.95;;;;;;;1.83;43.07;101196.91;2066859;84;21034;-82
2022/03/13 06:25:28;;;;;;;29.98;14.58;;;;;;;2.19;42.56;101194.85;2066453;84;21058;-82
2022/03/13 06:28:31;;;;;;;27.15;14.63;;;;;;;2.35;41.96;101195.31;2066357;83;21472;-81
2022/03/13 06:31:32;;;;;;;27.87;14.35;;;;;;;2.57;41.50;101197.07;2067547;84;21015;-81
2022/03/13 06:34:34;;;;;;;25.97;12.15;;;;;;;2.64;41.54;101202.78;2067428;84;21509;-81
2022/03/13 06:37:41;;;;;;;26.82;14.65;;;;;;;2.87;40.80;101194.88;2065096;84;21094;-80
2022/03/13 06:40:42;;;;;;;28.95;14.78;;;;;;;3.10;41.45;101197.47;2067673;84;21440;-81
2022/03/13 06:43:44;;;;;;;26.93;12.80;;;;;;;3.35;40.95;101196.34;2065513;84;21078;-81
2022/03/13 06:46:46;;;;;;;27.00;14.75;;;;;;;3.86;40.77;101197.14;2061345;84;21070;-82
2022/03/13 06:49:47;;;;;;;26.52;13.08;;;;;;;4.22;40.55;101206.20;2063384;84;21070;-82
2022/03/13 06:52:51;;;;;;;27.40;14.10;;;;;;;4.66;39.63;101210.34;2065094;84;21305;-82
2022/03/13 06:55:53;;;;;;;28.50;13.95;;;;;;;5.11;39.81;101205.56;2055140;84;21047;-82
2022/03/13 06:58:58;;;;;;;26.50;13.38;;;;;;;5.63;39.58;101209.82;2064081;84;21035;-83
2022/03/13 07:02:00;;;;;;;25.92;12.68;;;;;;;6.05;36.82;101207.74;2062113;84;21054;-82
2022/03/13 07:05:01;;;;;;;22.27;12.45;;;;;;;6.11;37.62;101210.41;2065154;84;21074;-83
2022/03/13 07:08:04;;;;;;;23.83;12.82;;;;;;;6.25;37.47;101209.80;2069075;84;21094;-83
2022/03/13 07:11:05;;;;;;;22.02;12.60;;;;;;;6.36;36.68;101208.98;2064578;84;21018;-81
2022/03/13 07:14:08;;;;;;;25.20;12.85;;;;;;;6.25;35.61;101207.16;2064121;84;21133;-81
2022/03/13 07:17:09;;;;;;;22.77;12.90;;;;;;;6.24;35.98;101206.77;2068685;84;21034;-81
2022/03/13 07:20:13;;;;;;;20.23;12.03;;;;;;;6.56;36.40;101202.71;2077863;84;21022;-82
2022/03/13 07:23:14;;;;;;;29.72;12.88;;;;;;;6.90;35.66;101207.64;2074070;84;21007;-81
2022/03/13 07:26:16;;;;;;;23.95;12.58;;;;;;;7.18;35.27;101212.48;2078420;84;20996;-87
2022/03/13 07:29:17;;;;;;;27.62;13.32;;;;;;;7.28;34.86;101211.28;2074307;84;20986;-82
2022/03/13 07:32:19;;;;;;;19.50;11.33;;;;;;;7.40;34.71;101198.92;2076449;84;20995;-81
2022/03/13 07:35:20;;;;;;;19.65;10.45;;;;;;;7.58;33.47;101204.58;2076598;84;21002;-82
2022/03/13 07:38:22;;;;;;;23.83;11.30;;;;;;;7.54;31.37;101207.92;2080873;84;21027;-80
2022/03/13 07:41:23;;;;;;;17.27;10.82;;;;;;;7.49;31.49;101202.64;2080281;84;21093;-81
2022/03/13 07:44:25;;;;;;;22.85;10.98;;;;;;;7.70;31.45;101206.23;2078711;84;21066;-82
2022/03/13 07:47:30;;;;;;;21.23;11.35;;;;;;;7.98;31.70;101211.48;2068070;84;21459;-85
2022/03/13 07:50:31;;;;;;;23.73;11.80;;;;;;;8.23;29.91;101205.55;2071424;84;21002;-85
2022/03/13 07:53:33;;;;;;;22.48;11.50;;;;;;;8.31;30.54;101203.11;2075958;84;21113;-82
2022/03/13 07:56:34;;;;;;;23.77;11.35;;;;;;;8.23;28.91;101206.37;2079057;84;21007;-86
2022/03/13 07:59:36;;;;;;;18.10;11.28;;;;;;;8.07;28.75;101205.94;2075354;84;21530;-84
2022/03/13 08:02:37;;;;;;;16.90;10.32;;;;;;;7.90;27.96;101201.17;2071369;84;21551;-87
2022/03/13 08:05:39;;;;;;;19.62;10.60;;;;;;;7.79;28.54;101203.34;2069538;84;21036;-83
2022/03/13 08:08:45;;;;;;;21.75;10.60;;;;;;;7.89;28.85;101204.30;2075062;84;21071;-85
2022/03/13 08:11:46;;;;;;;17.00;9.78;;;;;;;8.14;28.20;101203.17;2066918;84;21549;-84
2022/03/13 08:14:50;;;;;;;19.32;10.05;;;;;;;8.27;27.70;101197.70;2072081;84;21057;-81
2022/03/13 08:17:51;;;;;;;20.88;10.23;;;;;;;8.32;27.24;101199.49;2065002;84;21070;-82
2022/03/13 08:20:53;;;;;;;17.87;8.63;;;;;;;8.36;28.49;101192.97;2073435;84;21038;-86
2022/03/13 08:23:55;;;;;;;17.10;9.28;;;;;;;8.46;27.22;101192.62;2074212;84;21022;-86
2022/03/13 08:26:57;;;;;;;16.60;9.58;;;;;;;8.49;27.67;101200.30;2075060;84;21461;-83
2022/03/13 08:29:58;;;;;;;17.17;9.85;;;;;;;8.65;27.54;101197.23;2080741;84;21066;-85
2022/03/13 08:33:00;;;;;;;14.87;8.58;;;;;;;8.74;26.43;101194.30;2073714;84;21014;-83
2022/03/13 08:36:01;;;;;;;15.68;8.25;;;;;;;8.86;26.41;101185.80;2078512;84;21073;-84
2022/03/13 08:39:03;;;;;;;13.10;8.60;;;;;;;9.04;26.33;101191.33;2071999;84;22108;-86
2022/03/13 08:42:05;;;;;;;16.40;9.15;;;;;;;8.90;25.24;101201.30;2064437;84;21054;-87
2022/03/13 08:45:08;;;;;;;14.93;9.13;;;;;;;8.91;26.36;101191.55;2080432;84;21050;-83
2022/03/13 08:48:10;;;;;;;16.75;8.65;;;;;;;9.04;25.21;101180.28;2077208;84;21030;-84
2022/03/13 08:51:13;;;;;;;16.17;8.60;;;;;;;9.04;25.51;101190.88;2095977;82;21480;-84
2022/03/13 08:54:16;;;;;;;14.78;8.20;;;;;;;8.98;24.99;101182.10;2070570;83;21043;-85
2022/03/13 08:57:17;;;;;;;13.15;7.58;;;;;;;9.10;25.30;101185.54;2077329;84;21038;-85
2022/03/13 09:00:21;;;;;;;11.93;7.50;;;;;;;9.29;25.39;101189.61;2070881;84;21441;-82
2022/03/13 09:03:22;;;;;;;12.23;8.08;;;;;;;9.29;24.44;101188.29;2068844;84;21589;-83
2022/03/13 09:06:24;;;;;;;20.52;8.75;;;;;;;9.29;24.37;101190.94;2069108;84;21019;-87
2022/03/13 09:09:26;;;;;;;12.45;8.23;;;;;;;9.35;24.23;101186.42;2093521;83;21057;-85
2022/03/13 09:12:27;;;;;;;14.60;8.83;;;;;;;9.41;23.80;101183.24;2075612;84;21046;-84
2022/03/13 09:15:29;;;;;;;21.55;9.23;;;;;;;9.41;23.51;101188.54;2065884;84;21031;-84
2022/03/13 09:18:31;;;;;;;14.33;8.70;;;;;;;9.34;23.48;101179.44;2077591;84;21042;-82
2022/03/13 09:21:34;;;;;;;16.37;8.58;;;;;;;9.46;24.45;101194.78;2074414;84;21011;-82
2022/03/13 09:24:35;;;;;;;15.53;8.13;;;;;;;9.67;23.58;101182.77;2077287;84;21503;-84
2022/03/13 09:27:37;;;;;;;15.90;8.53;;;;;;;9.65;23.92;101196.14;2075560;84;21042;-83
2022/03/13 09:30:39;;;;;;;15.30;8.30;;;;;;;9.81;24.03;101190.84;2069938;84;21604;-83
2022/03/13 09:33:40;;;;;;;12.33;7.37;;;;;;;9.73;23.23;101189.34;2077690;84;21574;-82
2022/03/13 09:36:42;;;;;;;12.93;8.45;;;;;;;9.53;22.67;101182.66;2062360;82;21471;-82
2022/03/13 09:39:45;;;;;;;14.98;8.35;;;;;;;9.28;23.20;101188.41;2065581;84;21039;-85
2022/03/13 09:42:48;;;;;;;11.65;7.35;;;;;;;9.26;23.21;101190.34;2072890;84;21085;-83
2022/03/13 09:45:49;;;;;;;13.15;7.20;;;;;;;9.20;22.56;101183.27;2075325;84;21054;-85
2022/03/13 09:48:54;;;;;;;11.57;7.22;;;;;;;9.33;22.92;101188.36;2070546;84;21814;-82
2022/03/13 09:51:58;;;;;;;14.93;7.28;;;;;;;9.35;22.87;101179.81;2066919;84;21138;-83
2022/03/13 09:55:01;;;;;;;14.18;8.13;;;;;;;9.43;23.20;101177.33;2073074;84;21042;-83
2022/03/13 09:58:02;;;;;;;12.85;7.67;;;;;;;9.69;23.05;101170.23;2095548;83;21025;-84
2022/03/13 10:01:07;;;;;;;13.85;8.00;;;;;;;9.76;22.72;101187.25;2102286;82;21064;-82
2022/03/13 10:04:09;;;;;;;14.87;7.37;;;;;;;9.98;22.63;101165.48;2075334;84;21025;-83
2022/03/13 10:07:12;;;;;;;18.17;8.83;;;;;;;10.19;23.03;101172.84;2066176;84;21002;-84
2022/03/13 10:10:14;;;;;;;15.20;8.33;;;;;;;10.33;22.20;101166.29;2094453;82;21462;-86
2022/03/13 10:13:35;;;;;;;13.70;7.95;;;;;;;10.42;22.71;101165.97;2143933;81;21546;-82
2022/03/13 10:16:39;;;;;;;16.42;8.60;;;;;;;10.53;22.46;101161.81;2154987;80;21016;-83
2022/03/13 10:19:41;;;;;;;14.90;8.25;;;;;;;10.50;21.73;101160.30;2135300;81;21085;-82
2022/03/13 10:22:49;;;;;;;13.48;7.92;;;;;;;10.40;22.33;101166.59;2139246;82;21028;-83
2022/03/13 10:25:53;;;;;;;11.05;7.50;;;;;;;10.43;21.07;101162.33;2136376;82;21580;-82
2022/03/13 10:28:54;;;;;;;14.07;7.97;;;;;;;10.51;22.22;101163.79;2136602;82;21005;-83
2022/03/13 10:31:58;;;;;;;13.30;7.65;;;;;;;10.47;21.61;101169.88;2133317;80;21049;-83
2022/03/13 10:35:01;;;;;;;12.05;6.37;;;;;;;10.43;21.81;101168.95;2114439;82;21065;-83
2022/03/13 10:38:19;;;;;;;12.53;8.13;;;;;;;10.54;21.23;101165.66;2136175;82;20998;-85
2022/03/13 10:41:24;;;;;;;13.08;6.92;;;;;;;10.60;21.20;101161.61;2138008;82;21529;-82
2022/03/13 10:44:27;;;;;;;12.47;7.37;;;;;;;10.65;20.86;101163.36;2117297;82;21069;-84
2022/03/13 10:47:31;;;;;;;15.45;7.33;;;;;;;10.84;21.38;101159.84;2135143;82;21005;-83
2022/03/13 10:50:37;;;;;;;9.85;6.67;;;;;;;10.95;19.57;101147.72;2134167;80;21536;-83
2022/03/13 10:53:39;;;;;;;14.65;8.48;;;;;;;10.85;20.33;101154.03;2139710;80;20990;-84
2022/03/13 10:56:41;;;;;;;13.60;9.03;;;;;;;10.71;19.80;101153.48;2136942;81;21520;-84
2022/03/13 10:59:43;;;;;;;15.08;8.93;;;;;;;10.74;20.85;101151.87;2139147;82;21029;-84
2022/03/13 11:02:44;;;;;;;13.83;8.28;;;;;;;10.94;20.83;101156.65;2135965;80;20994;-84
2022/03/13 11:05:49;;;;;;;15.65;8.93;;;;;;;10.98;20.46;101161.17;2140362;82;20951;-83
2022/03/13 11:08:54;;;;;;;15.68;8.60;;;;;;;11.02;20.87;101150.62;2141075;80;21437;-84
2022/03/13 11:11:56;;;;;;;16.50;9.13;;;;;;;11.10;20.28;101148.09;2137141;82;22047;-82
2022/03/13 11:15:01;;;;;;;15.45;9.45;;;;;;;11.22;20.67;101132.80;2133001;82;21577;-84
2022/03/13 11:18:06;;;;;;;15.25;8.83;;;;;;;11.34;20.13;101141.41;2134984;82;21022;-83
2022/03/13 11:21:08;;;;;;;20.62;9.48;;;;;;;11.30;19.77;101130.25;2139282;81;21021;-82
2022/03/13 11:24:10;;;;;;;16.23;9.45;;;;;;;11.30;20.87;101136.89;2132588;82;21965;-82
2022/03/13 11:27:15;;;;;;;15.65;9.10;;;;;;;11.35;18.89;101122.68;2137912;82;21030;-84
2022/03/13 11:30:20;;;;;;;18.90;10.70;;;;;;;11.14;19.13;101123.39;2114880;82;21550;-83
2022/03/13 11:33:44;;;;;;;18.20;10.98;;;;;;;11.12;20.10;101133.31;2138379;80;21070;-81
2022/03/13 11:36:46;;;;;;;18.95;9.60;;;;;;;11.02;19.86;101122.74;2136823;82;21029;-78
2022/03/13 11:39:53;;;;;;;18.05;9.83;;;;;;;11.03;18.91;101139.51;2138583;82;21019;-81
2022/03/13 11:43:11;;;;;;;19.87;11.05;;;;;;;11.07;19.56;101127.13;2137600;81;21029;-80
2022/03/13 11:46:12;;;;;;;20.20;10.88;;;;;;;11.26;19.20;101120.05;2138124;82;21012;-81
2022/03/13 11:49:39;;;;;;;18.15;10.30;;;;;;;11.22;19.73;101116.36;2139768;80;20989;-83
2022/03/13 11:52:42;;;;;;;19.60;11.10;;;;;;;11.29;19.58;101123.27;2136059;80;21065;-81
2022/03/13 11:56:05;;;;;;;22.55;12.45;;;;;;;11.32;19.41;101114.14;2136237;82;21014;-86
2022/03/13 11:59:19;;;;;;;19.98;11.68;;;;;;;11.34;18.97;101110.86;2139060;82;20986;-82
2022/03/13 12:02:42;;;;;;;21.85;11.95;;;;;;;11.24;19.13;101096.30;2133938;82;21061;-79
2022/03/13 12:05:51;;;;;;;20.23;12.03;;;;;;;11.38;19.66;101108.27;2136182;82;21097;-80
2022/03/13 12:09:09;;;;;;;20.23;10.78;;;;;;;11.40;19.83;101096.51;2135874;82;21050;-80
2022/03/13 12:12:14;;;;;;;19.45;12.20;;;;;;;11.38;20.25;101105.11;2133569;82;21041;-82
2022/03/13 12:15:21;;;;;;;22.10;12.00;;;;;;;11.53;20.08;101097.47;2136847;82;21501;-80
2022/03/13 12:18:28;;;;;;;19.17;12.60;;;;;;;11.46;20.67;101069.83;2138923;81;21021;-81
2022/03/13 12:21:31;;;;;;;20.85;12.45;;;;;;;11.57;19.20;101058.98;2102026;82;21536;-80
2022/03/13 12:24:34;;;;;;;23.83;12.58;;;;;;;11.57;19.20;101058.98;2099156;82;21055;-80
2022/03/13 12:27:36;;;;;;;21.60;12.58;;;;;;;11.70;19.71;101086.52;2102803;83;21004;-80
2022/03/13 12:30:37;;;;;;;20.17;11.70;;;;;;;11.64;20.05;101072.00;2111950;82;21048;-82
2022/03/13 12:33:45;;;;;;;22.93;12.10;;;;;;;11.85;20.15;101074.86;2100791;82;21002;-81
2022/03/13 12:36:49;;;;;;;21.85;13.15;;;;;;;11.83;20.25;101072.86;2112640;83;21053;-81
2022/03/13 12:39:59;;;;;;;26.23;14.15;;;;;;;11.92;20.35;101071.14;2103106;82;21009;-80
2022/03/13 12:43:01;;;;;;;22.00;13.78;;;;;;;12.02;18.88;101067.89;2097206;83;20986;-81
2022/03/13 12:46:04;;;;;;;22.32;12.43;;;;;;;11.93;19.49;101073.64;2103576;83;21037;-82
2022/03/13 12:49:09;;;;;;;23.60;13.35;;;;;;;11.83;19.17;101075.02;2102241;82;21563;-80
2022/03/13 12:52:15;;;;;;;22.55;13.03;;;;;;;11.80;19.47;101065.19;2107245;83;21026;-80
2022/03/13 12:55:22;;;;;;;22.58;13.15;;;;;;;11.92;19.36;101064.00;2105302;83;20993;-82
2022/03/13 12:58:47;;;;;;;25.82;14.78;;;;;;;11.98;19.91;101060.72;2094839;82;21056;-80
2022/03/13 13:02:08;;;;;;;24.50;13.55;;;;;;;11.97;19.74;101060.39;2080307;83;21014;-84
2022/03/13 13:05:36;;;;;;;22.82;13.22;;;;;;;11.89;20.83;101066.47;2100488;83;21010;-83
2022/03/13 13:13:22;;;;;;;;;;;;;;;;;;;;;
2022/03/13 13:24:36;;;;;;;19.67;12.20;;;;;;;11.31;21.87;101050.05;2015243;86;21090;-84
2022/03/13 13:27:51;;;;;;;24.63;14.13;;;;;;;11.29;21.98;101051.53;1961812;86;21182;-84
2022/03/13 13:34:16;;;;;;;25.80;13.75;;;;;;;11.11;21.46;101034.21;2054343;83;20160;-84
2022/03/13 13:37:18;;;;;;;21.93;13.13;;;;;;;11.11;22.57;101058.11;2104315;83;21062;-84
2022/03/13 13:40:23;;;;;;;22.22;12.60;;;;;;;11.12;22.58;101053.63;2080319;83;21118;-85
2022/03/13 13:43:34;;;;;;;22.95;13.35;;;;;;;11.13;22.91;101050.02;2097567;83;21068;-82
2022/03/13 13:46:35;;;;;;;22.70;12.20;;;;;;;11.09;22.67;101061.40;2102768;83;21008;-83
2022/03/13 13:49:37;;;;;;;23.67;14.28;;;;;;;11.02;22.60;101048.38;2102016;82;21006;-83
2022/03/13 13:52:39;;;;;;;24.05;13.88;;;;;;;11.04;22.42;101049.08;2105845;83;21698;-80
2022/03/13 13:55:43;;;;;;;24.52;13.28;;;;;;;11.08;22.52;101048.28;2101525;83;21064;-80
2022/03/13 13:58:45;;;;;;;24.67;13.60;;;;;;;11.00;22.37;101052.50;2098710;83;21008;-80
2022/03/13 14:01:49;;;;;;;23.50;13.22;;;;;;;10.96;21.95;101050.30;2108801;82;21061;-81
2022/03/13 14:04:52;;;;;;;21.23;12.70;;;;;;;10.96;22.25;101050.30;2101353;83;21009;-84
2022/03/13 14:07:55;;;;;;;21.55;11.03;;;;;;;10.97;22.75;101054.62;2099386;83;21054;-82
2022/03/13 14:10:58;;;;;;;24.47;14.05;;;;;;;10.95;22.28;101056.58;2099490;83;21030;-84
2022/03/13 14:14:03;;;;;;;21.85;12.50;;;;;;;10.83;22.48;101051.95;2102385;83;21001;-82
2022/03/13 14:17:06;;;;;;;21.62;12.30;;;;;;;10.83;22.67;101045.31;2105538;83;20989;-84